Slagle, Louisiana
Current Conditions -  °F | °C
As of 1:58 AM on Sunday 26 Oct 2014 (Local Time) from KPOE Reporting Station
Clear Clear  
Wind Chill: 58°   Ceiling: Unl
Heat Index: 58°   Visibility: 10mi
Dew Point: 54°   Wind: 1mph
Humidity: 87%   Direction: NA
Pressure: 30.07"   Gusts: NA
Location:  31.2°N, 93.13°W
Report Text: KPOE 260658Z AUTO VRB01KT 10SM CLR 15/12 A3007 RMK AO2 SLP183 T01450124
Loading
Personal Weather Stations






























Interactive Weather Map
Tropical Storm Tracking
New forecast layout! Learn more

10-Day Weather Forecast

Advertisements
Track Severe Weather on mobile